Terminal Aerodrome Forecast
Issued by NWS Central Illinois

Home | Current Version | Previous Version | Text Only | Print | Product List | Glossary On
Versions: 1 2 3 4 5 6 7 8 9 10 11 12 13 14 15 16 17 18 19 20
000
FTUS43 KILX 090101 AAA
TAFPIA
TAF AMD
KPIA 090101Z 0901/0924 30010G17KT P6SM OVC025
     FM090400 29009KT P6SM OVC025
     FM091400 30008KT P6SM BKN035=

USA.gov is the U.S. government's official web portal to all federal, state and local government web resources and services.